Time;durP1;ratioP1;P1;durP2;ratioP2;P2;SDS_P1;SDS_P2;PMS_P1;PMS_P2;Temp;Humidity;BMP_temperature;BMP_pressure;BME280_temperature;BME280_humidity;BME280_pressure;Samples;Min_cycle;Max_cycle;Signal;HPM_P1;HPM_P2
2023/09/02 00:02:02;;;;;;;48.60;23.90;;;;;;;-146.27;100.00;82125.06;5033714;28;20025;-72
2023/09/02 00:04:28;;;;;;;39.03;20.85;;;;;;;-146.27;100.00;82086.91;5041629;28;20052;-71
2023/09/02 00:06:54;;;;;;;45.30;22.40;;;;;;;-146.27;100.00;82123.06;5050680;28;20025;-71
2023/09/02 00:09:19;;;;;;;42.03;22.10;;;;;;;-146.27;100.00;82137.13;5044441;28;20029;-72
2023/09/02 00:11:44;;;;;;;40.42;22.52;;;;;;;-146.27;100.00;82129.06;5032180;28;20061;-71
2023/09/02 00:14:10;;;;;;;41.30;20.92;;;;;;;-146.27;100.00;82167.25;5035710;28;20049;-71
2023/09/02 00:16:35;;;;;;;39.47;20.23;;;;;;;-146.27;100.00;82171.25;5040833;28;20088;-71
2023/09/02 00:19:02;;;;;;;42.40;21.30;;;;;;;-146.27;100.00;82187.31;5046337;28;20025;-71
2023/09/02 00:21:27;;;;;;;36.78;20.80;;;;;;;-146.27;100.00;82199.38;5042265;28;20393;-70
2023/09/02 00:24:05;;;;;;;42.58;21.83;;;;;;;-146.27;100.00;82201.38;5048559;28;20038;-71
2023/09/02 00:26:31;;;;;;;40.03;19.55;;;;;;;-146.27;100.00;82249.59;5044020;28;20041;-71
2023/09/02 00:28:56;;;;;;;49.13;22.15;;;;;;;-146.27;100.00;82237.53;5031526;28;20028;-71
2023/09/02 00:31:22;;;;;;;46.15;21.25;;;;;;;-146.27;100.00;82259.66;5036959;28;20025;-70
2023/09/02 00:33:47;;;;;;;39.40;21.10;;;;;;;-146.27;100.00;82227.50;5033289;28;20048;-71
2023/09/02 00:36:14;;;;;;;45.15;21.45;;;;;;;-146.27;100.00;82227.50;5041899;28;20425;-71
2023/09/02 00:38:40;;;;;;;38.20;21.02;;;;;;;-146.27;100.00;82267.69;5046114;28;20014;-71
2023/09/02 00:41:09;;;;;;;41.72;19.25;;;;;;;-146.27;100.00;82235.53;5047985;28;20059;-71
2023/09/02 00:43:35;;;;;;;44.53;20.77;;;;;;;-146.27;100.00;82243.56;5045736;28;20032;-71
2023/09/02 00:46:01;;;;;;;45.50;21.00;;;;;;;-146.27;100.00;82243.56;5041415;28;20039;-71
2023/09/02 00:48:26;;;;;;;48.65;21.70;;;;;;;-146.27;100.00;82251.59;5051782;28;20028;-71
2023/09/02 00:50:52;;;;;;;50.50;21.77;;;;;;;-146.27;100.00;82209.44;5045783;28;20021;-71
2023/09/02 00:53:18;;;;;;;56.67;21.85;;;;;;;-146.27;100.00;82243.56;5052198;28;20033;-71
2023/09/02 00:55:45;;;;;;;41.60;20.83;;;;;;;-146.27;100.00;82217.47;5032492;28;20104;-71
2023/09/02 00:58:11;;;;;;;56.22;23.05;;;;;;;-146.27;100.00;82207.41;5041334;28;20546;-71
2023/09/02 01:00:37;;;;;;;54.75;23.52;;;;;;;-146.27;100.00;82211.44;5039005;28;20040;-68
2023/09/02 01:03:03;;;;;;;48.67;20.67;;;;;;;-146.27;100.00;82235.53;5034095;28;20029;-67
2023/09/02 01:05:29;;;;;;;50.55;21.65;;;;;;;-146.27;100.00;82207.41;5033551;28;20025;-70
2023/09/02 01:07:56;;;;;;;45.45;22.23;;;;;;;-146.27;100.00;82203.41;5041990;28;20056;-69
2023/09/02 01:10:22;;;;;;;57.30;23.77;;;;;;;-146.27;100.00;82199.38;5039184;28;20028;-68
2023/09/02 01:12:48;;;;;;;45.83;21.98;;;;;;;-146.27;100.00;82283.75;5048645;28;20052;-68
2023/09/02 01:15:13;;;;;;;49.42;22.50;;;;;;;-146.27;100.00;82179.28;5040108;28;20053;-70
2023/09/02 01:17:38;;;;;;;54.95;22.88;;;;;;;-146.27;100.00;82199.38;5039185;28;20118;-67
2023/09/02 01:20:07;;;;;;;51.65;23.83;;;;;;;-146.27;100.00;82183.31;5034110;28;20052;-67
2023/09/02 01:23:09;;;;;;;56.80;23.27;;;;;;;-146.27;100.00;82197.38;5031182;28;20037;-68
2023/09/02 01:26:05;;;;;;;64.45;26.92;;;;;;;-146.27;100.00;82147.16;5043735;28;20033;-68
2023/09/02 01:28:34;;;;;;;65.65;27.58;;;;;;;-146.27;100.00;82167.25;5041776;28;20033;-68
2023/09/02 01:31:02;;;;;;;69.80;28.33;;;;;;;-146.27;100.00;82151.16;5033448;28;20025;-68
2023/09/02 01:33:29;;;;;;;67.38;27.13;;;;;;;-146.27;100.00;82155.19;5035864;28;20060;-68
2023/09/02 01:35:58;;;;;;;71.28;26.38;;;;;;;-146.27;100.00;82175.28;5043083;28;20473;-69
2023/09/02 01:38:26;;;;;;;72.25;27.88;;;;;;;-146.27;100.00;82139.13;5042770;28;20474;-68
2023/09/02 01:40:54;;;;;;;95.60;28.90;;;;;;;-146.27;100.00;82137.13;5040213;28;20024;-67
2023/09/02 01:43:21;;;;;;;100.63;29.10;;;;;;;-146.27;100.00;82121.03;5042390;28;20041;-68
2023/09/02 01:45:48;;;;;;;90.63;31.05;;;;;;;-146.27;100.00;82131.09;5036300;28;20128;-69
2023/09/02 01:48:15;;;;;;;77.70;28.92;;;;;;;-146.27;100.00;82131.09;5038175;28;20044;-67
2023/09/02 01:50:42;;;;;;;66.75;28.58;;;;;;;-146.27;100.00;82129.06;5034478;28;20029;-68
2023/09/02 01:53:11;;;;;;;63.15;26.60;;;;;;;-146.27;100.00;82115.00;5041754;28;20033;-68
2023/09/02 01:55:36;;;;;;;54.83;24.55;;;;;;;-146.27;100.00;82094.94;5035150;28;20112;-69
2023/09/02 01:58:02;;;;;;;48.05;23.23;;;;;;;-146.27;100.00;82060.78;5041935;28;20119;-68
2023/09/02 02:00:28;;;;;;;77.15;24.98;;;;;;;-146.27;100.00;82066.81;5043012;28;20593;-68
2023/09/02 02:02:56;;;;;;;78.68;25.33;;;;;;;-146.27;100.00;82133.09;5041224;28;20033;-68
2023/09/02 02:05:31;;;;;;;121.65;24.80;;;;;;;-146.27;100.00;82143.13;5033428;28;20511;-70
2023/09/02 02:08:01;;;;;;;84.82;24.90;;;;;;;-146.27;100.00;82088.91;5037729;28;20151;-68
2023/09/02 02:10:29;;;;;;;85.53;21.20;;;;;;;-146.27;100.00;82143.13;5033778;28;20063;-68
2023/09/02 02:12:55;;;;;;;42.97;21.15;;;;;;;-146.27;100.00;82147.16;5046264;28;20155;-66
2023/09/02 02:15:20;;;;;;;40.42;21.63;;;;;;;-146.27;100.00;82082.88;5039876;28;20139;-69
2023/09/02 02:17:45;;;;;;;50.40;21.60;;;;;;;-146.27;100.00;82141.13;5037460;28;20557;-67
2023/09/02 02:20:11;;;;;;;50.13;22.30;;;;;;;-146.27;100.00;82167.25;5039429;28;20458;-67
2023/09/02 02:22:37;;;;;;;46.65;21.98;;;;;;;-146.27;100.00;82153.19;5047722;28;20195;-68
2023/09/02 02:25:03;;;;;;;150.48;23.83;;;;;;;-146.27;100.00;82147.16;5035247;28;20090;-67
2023/09/02 02:27:29;;;;;;;116.10;21.83;;;;;;;-146.27;100.00;82165.22;5036451;28;20025;-68
2023/09/02 02:29:55;;;;;;;74.68;21.80;;;;;;;-146.27;100.00;82177.28;5039070;28;20428;-67
2023/09/02 02:32:21;;;;;;;54.13;21.42;;;;;;;-146.27;100.00;82141.13;5055803;28;20033;-68
2023/09/02 02:34:47;;;;;;;44.17;22.98;;;;;;;-146.27;100.00;82165.22;5038413;28;20064;-67
2023/09/02 02:37:12;;;;;;;69.88;23.75;;;;;;;-146.27;100.00;82171.25;5038790;28;20492;-67
2023/09/02 02:39:38;;;;;;;158.63;24.33;;;;;;;-146.27;100.00;82183.31;5046112;28;20550;-68
2023/09/02 02:42:03;;;;;;;69.15;21.60;;;;;;;-146.27;100.00;82171.25;5041208;28;20517;-68
2023/09/02 02:44:28;;;;;;;136.18;22.20;;;;;;;-146.27;100.00;82161.22;5033322;28;20065;-67
2023/09/02 02:46:54;;;;;;;162.80;21.88;;;;;;;-146.27;100.00;82173.28;5049456;28;20024;-67
2023/09/02 02:49:19;;;;;;;165.10;23.05;;;;;;;-146.27;100.00;82179.28;5040765;28;20528;-67
2023/09/02 02:51:45;;;;;;;103.50;21.92;;;;;;;-146.27;100.00;82151.16;5035547;28;20028;-68
2023/09/02 02:54:10;;;;;;;70.45;19.90;;;;;;;-146.27;100.00;82185.31;5047385;28;20083;-67
2023/09/02 02:56:35;;;;;;;66.00;22.63;;;;;;;-146.27;100.00;82175.28;5052997;28;20029;-68
2023/09/02 02:59:01;;;;;;;208.55;24.40;;;;;;;-146.27;100.00;82203.41;5035075;28;20439;-68
2023/09/02 03:01:26;;;;;;;47.50;21.48;;;;;;;-146.27;100.00;82171.25;5030606;28;20052;-67
2023/09/02 03:03:52;;;;;;;80.63;22.23;;;;;;;-146.27;100.00;82177.28;5037593;28;20784;-67
2023/09/02 03:06:18;;;;;;;65.60;20.50;;;;;;;-146.27;100.00;82195.38;5040030;28;20131;-68
2023/09/02 03:08:44;;;;;;;42.95;19.27;;;;;;;-146.27;100.00;82219.47;5042467;28;20021;-68
2023/09/02 03:11:09;;;;;;;85.95;20.30;;;;;;;-146.27;100.00;82219.47;5047708;28;20037;-68
2023/09/02 03:13:35;;;;;;;51.72;20.27;;;;;;;-146.27;100.00;82183.31;5045273;28;20405;-69
2023/09/02 03:16:01;;;;;;;43.80;20.00;;;;;;;-146.27;100.00;82179.28;5045269;28;20403;-68
2023/09/02 03:18:28;;;;;;;54.22;20.42;;;;;;;-146.27;100.00;82199.38;5046422;28;20472;-70
2023/09/02 03:20:54;;;;;;;43.17;21.58;;;;;;;-146.27;100.00;82223.47;5046094;28;20033;-70
2023/09/02 03:23:20;;;;;;;42.72;18.77;;;;;;;-146.27;100.00;82223.47;5038705;28;20036;-70
2023/09/02 03:25:45;;;;;;;112.10;20.48;;;;;;;-146.27;100.00;82223.47;5038304;28;20021;-70
2023/09/02 03:28:12;;;;;;;108.50;20.10;;;;;;;-146.27;100.00;82251.59;5048681;28;20044;-70
2023/09/02 03:30:38;;;;;;;39.15;19.45;;;;;;;-146.27;100.00;82243.56;5048511;28;20017;-70
2023/09/02 03:33:03;;;;;;;61.58;19.27;;;;;;;-146.27;100.00;82221.47;5041172;28;20442;-70
2023/09/02 03:35:29;;;;;;;62.03;20.08;;;;;;;-146.27;100.00;82253.63;5041167;28;20565;-71
2023/09/02 03:37:54;;;;;;;69.85;19.92;;;;;;;-146.27;100.00;82255.63;5039379;28;20032;-70
2023/09/02 03:40:19;;;;;;;41.03;20.67;;;;;;;-146.27;100.00;82235.53;5042723;28;20116;-70
2023/09/02 03:42:45;;;;;;;87.55;20.30;;;;;;;-146.27;100.00;82243.56;5035273;28;20397;-70
2023/09/02 03:45:10;;;;;;;72.90;21.08;;;;;;;-146.27;100.00;82275.72;5051917;28;20036;-70
2023/09/02 03:47:36;;;;;;;116.65;22.35;;;;;;;-146.27;100.00;82241.56;5051009;28;20068;-70
2023/09/02 03:50:03;;;;;;;82.82;19.73;;;;;;;-146.27;100.00;82225.50;5048537;28;20798;-70
2023/09/02 03:52:28;;;;;;;73.15;20.58;;;;;;;-146.27;100.00;82261.66;5049953;28;20028;-71
2023/09/02 03:54:54;;;;;;;75.18;19.40;;;;;;;-146.27;100.00;82209.44;5043055;28;20021;-69
2023/09/02 03:57:19;;;;;;;56.72;19.70;;;;;;;-146.27;100.00;82199.38;5040674;28;20436;-70
2023/09/02 03:59:44;;;;;;;45.08;18.63;;;;;;;-146.27;100.00;82233.53;5045303;28;20036;-70
2023/09/02 04:02:10;;;;;;;53.28;19.30;;;;;;;-146.27;100.00;82223.47;5050857;28;20411;-71
2023/09/02 04:04:35;;;;;;;43.60;19.30;;;;;;;-146.27;100.00;82251.59;5035464;28;20428;-70
2023/09/02 04:07:01;;;;;;;36.53;19.65;;;;;;;-146.27;100.00;82211.44;5046044;28;20032;-70
2023/09/02 04:09:27;;;;;;;35.35;18.15;;;;;;;-146.27;100.00;82265.66;5047179;28;20049;-71
2023/09/02 04:11:53;;;;;;;30.05;17.70;;;;;;;-146.27;100.00;82233.53;5037022;28;20017;-70
2023/09/02 04:14:18;;;;;;;57.63;18.75;;;;;;;-146.27;100.00;82225.50;5047634;28;20560;-70
2023/09/02 04:16:43;;;;;;;44.90;18.00;;;;;;;-146.27;100.00;82247.59;5037276;28;20025;-70
2023/09/02 04:19:09;;;;;;;67.55;17.13;;;;;;;-146.27;100.00;82255.63;5040044;28;20045;-70
2023/09/02 04:21:34;;;;;;;41.03;18.00;;;;;;;-146.27;100.00;82255.63;5043133;28;20037;-69
2023/09/02 04:24:00;;;;;;;76.38;16.98;;;;;;;-146.27;100.00;82203.41;5049285;28;20036;-70
2023/09/02 04:26:25;;;;;;;159.88;18.38;;;;;;;-146.27;100.00;82275.72;5040975;28;20024;-70
2023/09/02 04:28:52;;;;;;;39.30;16.13;;;;;;;-146.27;100.00;82267.69;5044136;28;20025;-70
2023/09/02 04:31:17;;;;;;;61.75;20.05;;;;;;;-146.27;100.00;82267.69;5048873;28;20033;-68
2023/09/02 04:33:43;;;;;;;60.55;18.77;;;;;;;-146.27;100.00;82253.63;5038613;28;20544;-68
2023/09/02 04:36:09;;;;;;;66.18;17.42;;;;;;;-146.27;100.00;82293.78;5031895;28;20029;-69
2023/09/02 04:38:34;;;;;;;45.97;17.25;;;;;;;-146.27;100.00;82299.81;5044769;28;20526;-67
2023/09/02 04:41:06;;;;;;;59.78;17.83;;;;;;;-146.27;100.00;82265.66;5046245;28;20059;-69
2023/09/02 04:43:33;;;;;;;86.28;17.95;;;;;;;-146.27;100.00;82289.78;5034723;28;20041;-68
2023/09/02 04:46:02;;;;;;;71.53;16.98;;;;;;;-146.27;100.00;82275.72;5040935;28;20028;-68
2023/09/02 04:48:28;;;;;;;82.50;23.17;;;;;;;-146.27;100.00;82301.81;5041368;28;20030;-68
2023/09/02 04:50:54;;;;;;;78.70;18.50;;;;;;;-146.27;100.00;82295.81;5035882;28;20025;-68
2023/09/02 04:53:20;;;;;;;210.82;21.40;;;;;;;-146.27;100.00;82267.69;5037473;28;20097;-68
2023/09/02 04:55:47;;;;;;;33.67;17.88;;;;;;;-146.27;100.00;82323.91;5040378;28;20531;-68
2023/09/02 04:58:12;;;;;;;42.45;18.60;;;;;;;-146.27;100.00;82303.84;5044761;28;20652;-68
2023/09/02 05:00:38;;;;;;;147.45;21.33;;;;;;;-146.27;100.00;82283.75;5037362;28;20036;-67
2023/09/02 05:03:04;;;;;;;106.38;19.88;;;;;;;-146.27;100.00;82271.69;5044183;28;20028;-68
2023/09/02 05:05:31;;;;;;;50.22;18.83;;;;;;;-146.27;100.00;82297.81;5039680;28;20032;-68
2023/09/02 05:07:57;;;;;;;62.15;20.20;;;;;;;-146.27;100.00;82313.88;5031673;28;20033;-67
2023/09/02 05:10:22;;;;;;;53.65;19.50;;;;;;;-146.27;100.00;82273.72;5045872;28;20051;-68
2023/09/02 05:12:48;;;;;;;61.85;20.38;;;;;;;-146.27;100.00;82283.75;5041483;28;20029;-67
2023/09/02 05:15:13;;;;;;;131.40;21.15;;;;;;;-146.27;100.00;82295.81;5043697;28;20046;-67
2023/09/02 05:17:38;;;;;;;225.00;21.42;;;;;;;-146.27;100.00;82283.75;5042472;28;20473;-69
2023/09/02 05:20:05;;;;;;;122.55;19.48;;;;;;;-146.27;100.00;82273.72;5036663;28;20029;-68
2023/09/02 05:22:31;;;;;;;40.78;18.65;;;;;;;-146.27;100.00;82263.66;5037265;28;20044;-69
2023/09/02 05:24:56;;;;;;;232.82;23.88;;;;;;;-146.27;100.00;82277.72;5034708;28;20022;-67
2023/09/02 05:27:22;;;;;;;32.13;17.13;;;;;;;-146.27;100.00;82275.72;5040847;28;20036;-69
2023/09/02 05:29:48;;;;;;;71.95;20.13;;;;;;;-146.27;100.00;82277.72;5039534;28;20020;-65
2023/09/02 05:32:14;;;;;;;75.53;18.15;;;;;;;-146.27;100.00;82295.81;5044120;28;20404;-68
2023/09/02 05:34:40;;;;;;;216.43;19.88;;;;;;;-146.27;100.00;82291.78;5041877;28;20496;-68
2023/09/02 05:37:05;;;;;;;141.93;18.67;;;;;;;-146.27;100.00;82315.88;5047949;28;20020;-69
2023/09/02 05:39:34;;;;;;;81.68;18.27;;;;;;;-146.27;100.00;82299.81;5041040;28;20389;-69
2023/09/02 05:41:59;;;;;;;52.08;18.42;;;;;;;-146.27;100.00;82295.81;5050162;28;20127;-70
2023/09/02 05:44:25;;;;;;;42.22;18.48;;;;;;;-146.27;100.00;82277.72;5050619;28;20486;-70
2023/09/02 05:46:50;;;;;;;75.10;17.88;;;;;;;-146.27;100.00;82267.69;5043327;28;20145;-70
2023/09/02 05:49:15;;;;;;;38.58;17.85;;;;;;;-146.27;100.00;82291.78;5033122;28;20025;-69
2023/09/02 05:51:41;;;;;;;34.13;17.73;;;;;;;-146.27;100.00;82263.66;5038855;28;20036;-70
2023/09/02 05:54:09;;;;;;;28.10;17.48;;;;;;;-146.27;100.00;82263.66;5037491;28;20033;-71
2023/09/02 05:56:34;;;;;;;64.13;19.05;;;;;;;-146.27;100.00;82303.84;5043877;28;20037;-70
2023/09/02 05:59:01;;;;;;;40.63;16.63;;;;;;;-146.27;100.00;82239.56;5049785;28;20058;-69
2023/09/02 06:01:26;;;;;;;25.92;17.33;;;;;;;-146.27;100.00;82235.53;5050587;28;20029;-70
2023/09/02 06:03:51;;;;;;;37.95;16.95;;;;;;;-146.27;100.00;82271.69;5044939;28;20039;-69
2023/09/02 06:06:17;;;;;;;28.80;17.42;;;;;;;-146.27;100.00;82255.63;5051321;28;20047;-71
2023/09/02 06:08:42;;;;;;;36.17;17.85;;;;;;;-146.27;100.00;82223.47;5049488;28;20020;-71
2023/09/02 06:11:08;;;;;;;43.15;17.83;;;;;;;-146.27;100.00;82205.41;5048795;28;20021;-70
2023/09/02 06:13:34;;;;;;;133.00;18.77;;;;;;;-146.27;100.00;82257.63;5046747;28;20150;-70
2023/09/02 06:16:01;;;;;;;38.53;17.58;;;;;;;-146.27;100.00;82233.53;5039935;28;20385;-70
2023/09/02 06:18:27;;;;;;;110.53;18.17;;;;;;;-146.27;100.00;82257.63;5052129;28;20104;-71
2023/09/02 06:20:52;;;;;;;51.17;17.63;;;;;;;-146.27;100.00;82249.59;5045612;28;20124;-69
2023/09/02 06:23:18;;;;;;;59.05;18.08;;;;;;;-146.27;100.00;82205.41;5041978;28;20025;-69
2023/09/02 06:25:43;;;;;;;97.03;20.63;;;;;;;-146.27;100.00;82215.44;5043070;28;20017;-70
2023/09/02 06:28:08;;;;;;;95.53;20.02;;;;;;;-146.27;100.00;82235.53;5049845;28;20029;-71
2023/09/02 06:30:37;;;;;;;34.92;17.17;;;;;;;-146.27;100.00;82177.28;5046251;28;20055;-70
2023/09/02 06:33:03;;;;;;;57.65;17.83;;;;;;;-146.27;100.00;82223.47;5050300;28;20303;-70
2023/09/02 06:35:31;;;;;;;181.10;21.10;;;;;;;-146.27;100.00;82211.44;5049025;28;20032;-70
2023/09/02 06:37:57;;;;;;;102.05;20.58;;;;;;;-146.27;100.00;82231.53;5048536;28;20052;-70
2023/09/02 06:40:22;;;;;;;142.85;21.55;;;;;;;-146.27;100.00;82215.44;5039030;28;20060;-70
2023/09/02 06:42:47;;;;;;;177.93;21.92;;;;;;;-146.27;100.00;82211.44;5030404;28;20021;-71
2023/09/02 06:45:13;;;;;;;116.40;20.58;;;;;;;-146.27;100.00;82199.38;5047258;28;20042;-71
2023/09/02 06:47:38;;;;;;;97.13;21.00;;;;;;;-146.27;100.00;82157.19;5048317;28;20469;-71
2023/09/02 06:50:05;;;;;;;181.20;24.27;;;;;;;-146.27;100.00;82157.19;5045974;28;20103;-71
2023/09/02 06:52:30;;;;;;;72.88;19.95;;;;;;;-146.27;100.00;82179.28;5044913;28;20037;-71
2023/09/02 06:54:55;;;;;;;172.43;21.30;;;;;;;-146.27;100.00;82163.22;5045668;28;20039;-71
2023/09/02 06:57:21;;;;;;;108.85;21.00;;;;;;;-146.27;100.00;82163.22;5042221;28;20242;-70
2023/09/02 06:59:46;;;;;;;166.00;24.17;;;;;;;-146.27;100.00;82183.31;5048786;28;20385;-70
2023/09/02 07:02:12;;;;;;;59.55;22.17;;;;;;;-146.27;100.00;82173.28;5047708;28;20108;-70
2023/09/02 07:04:37;;;;;;;95.25;22.38;;;;;;;-146.27;100.00;82147.16;5056737;28;20048;-71
2023/09/02 07:07:03;;;;;;;77.90;23.25;;;;;;;-146.27;100.00;82171.25;5057336;28;20064;-74
2023/09/02 07:09:28;;;;;;;83.00;22.25;;;;;;;-146.27;100.00;82139.13;5049264;28;20099;-71
2023/09/02 07:11:55;;;;;;;76.22;23.35;;;;;;;-146.27;100.00;82153.19;5046970;28;20232;-73
2023/09/02 07:14:20;;;;;;;97.90;24.35;;;;;;;-146.27;100.00;82153.19;5038963;28;20069;-72
2023/09/02 07:16:45;;;;;;;73.07;23.52;;;;;;;-146.27;100.00;82094.94;5039009;28;20520;-72
2023/09/02 07:19:11;;;;;;;75.78;23.65;;;;;;;-146.27;100.00;82115.00;5033990;28;20021;-72
2023/09/02 07:21:36;;;;;;;109.18;23.73;;;;;;;-146.27;100.00;82113.00;5052334;28;20052;-71
2023/09/02 07:24:02;;;;;;;91.80;24.73;;;;;;;-146.27;100.00;82104.97;5051109;28;20020;-69
2023/09/02 07:26:27;;;;;;;63.92;23.92;;;;;;;-146.27;100.00;82117.03;5044702;28;20057;-72
2023/09/02 07:28:53;;;;;;;85.95;24.80;;;;;;;-146.27;100.00;82074.84;5047604;28;20373;-72
2023/09/02 07:31:18;;;;;;;86.70;25.17;;;;;;;-146.27;100.00;82094.94;5050553;28;20032;-72
2023/09/02 07:33:44;;;;;;;96.25;24.05;;;;;;;-146.27;100.00;82084.88;5042328;28;20037;-72
2023/09/02 07:36:11;;;;;;;92.60;26.20;;;;;;;-146.27;100.00;82070.81;5052186;28;20048;-68
2023/09/02 07:38:38;;;;;;;89.55;25.45;;;;;;;-146.27;100.00;82008.56;5050103;28;20481;-69
2023/09/02 07:41:03;;;;;;;82.85;26.40;;;;;;;-146.27;100.00;82048.72;5045292;28;20021;-70
2023/09/02 07:43:29;;;;;;;81.93;27.10;;;;;;;-146.27;100.00;82052.75;5047910;28;20396;-71
2023/09/02 07:45:55;;;;;;;97.18;26.48;;;;;;;-146.27;100.00;82014.59;5051915;28;20033;-72
2023/09/02 07:48:21;;;;;;;92.00;26.92;;;;;;;-146.27;100.00;81964.38;5042423;28;20044;-70
2023/09/02 07:50:46;;;;;;;88.28;27.83;;;;;;;-146.27;100.00;82008.56;5039442;28;20021;-73
2023/09/02 07:53:13;;;;;;;89.10;28.92;;;;;;;-146.27;100.00;81982.44;5043353;28;20104;-69
2023/09/02 07:55:38;;;;;;;97.22;29.77;;;;;;;-146.27;100.00;81986.47;5033105;28;20029;-70
2023/09/02 07:58:04;;;;;;;100.72;29.05;;;;;;;-146.27;100.00;81986.47;5034826;28;20615;-71
2023/09/02 08:00:29;;;;;;;108.72;30.10;;;;;;;-146.27;100.00;82000.53;5051973;28;20440;-71
2023/09/02 08:02:55;;;;;;;115.60;30.52;;;;;;;-146.27;100.00;81954.31;5047477;28;20095;-70
2023/09/02 08:05:20;;;;;;;96.43;29.27;;;;;;;-146.27;100.00;81946.28;5038333;28;20044;-70
2023/09/02 08:07:46;;;;;;;105.03;30.63;;;;;;;-146.27;100.00;81910.13;5042702;28;20052;-70
2023/09/02 08:10:11;;;;;;;104.43;29.73;;;;;;;-146.27;100.00;81916.16;5051251;28;20028;-71
2023/09/02 08:12:39;;;;;;;101.53;29.15;;;;;;;-146.27;100.00;81882.00;5051783;28;20029;-70
2023/09/02 08:15:05;;;;;;;104.65;30.27;;;;;;;-146.27;100.00;81871.97;5043269;28;20087;-71
2023/09/02 08:17:35;;;;;;;107.65;30.70;;;;;;;-146.27;100.00;81873.97;5046611;28;20029;-69
2023/09/02 08:20:00;;;;;;;97.90;28.75;;;;;;;-146.27;100.00;81847.88;5030665;28;20033;-69
2023/09/02 08:22:25;;;;;;;99.72;29.85;;;;;;;-146.27;100.00;81845.88;5029271;28;20029;-70
2023/09/02 08:24:51;;;;;;;105.03;30.98;;;;;;;-146.27;100.00;81817.75;5032894;28;20029;-70
2023/09/02 08:27:16;;;;;;;105.45;29.55;;;;;;;-146.27;100.00;81821.75;5051894;28;20029;-70
2023/09/02 08:29:41;;;;;;;102.72;30.08;;;;;;;-146.27;100.00;81779.59;5045564;28;20119;-70
2023/09/02 08:32:07;;;;;;;99.50;31.13;;;;;;;-146.27;100.00;81763.50;5043782;28;20100;-69
2023/09/02 08:34:33;;;;;;;94.03;28.73;;;;;;;-146.27;100.00;81761.50;5048707;28;20029;-69
2023/09/02 08:36:58;;;;;;;91.65;30.33;;;;;;;-146.27;100.00;81725.34;5036140;28;22947;-69
2023/09/02 08:39:23;;;;;;;94.82;29.58;;;;;;;-146.27;100.00;81745.44;5040504;28;20056;-70
2023/09/02 08:41:50;;;;;;;99.55;30.08;;;;;;;-146.27;100.00;81693.22;5044310;28;20448;-70
2023/09/02 08:44:19;;;;;;;84.18;27.95;;;;;;;-146.27;100.00;81715.31;5030926;28;20466;-69
2023/09/02 08:46:46;;;;;;;89.65;28.17;;;;;;;-146.27;100.00;81620.91;5043648;28;20512;-71
2023/09/02 08:49:14;;;;;;;84.55;26.30;;;;;;;-146.27;100.00;81570.69;5033047;28;20481;-70
2023/09/02 08:51:41;;;;;;;77.68;25.92;;;;;;;-146.27;100.00;81608.88;5048620;28;20048;-70
2023/09/02 08:54:08;;;;;;;80.75;30.10;;;;;;;-146.27;100.00;81604.84;5045360;28;20070;-70
2023/09/02 08:56:34;;;;;;;72.95;25.75;;;;;;;-146.27;100.00;81552.63;5033137;28;20061;-71
2023/09/02 08:58:59;;;;;;;76.07;25.92;;;;;;;-146.27;100.00;81522.50;5049827;28;20397;-70
2023/09/02 09:01:25;;;;;;;76.85;26.27;;;;;;;-146.27;100.00;81534.56;5047165;28;20025;-72
2023/09/02 09:03:55;;;;;;;71.20;26.38;;;;;;;-146.27;100.00;81536.56;5040042;28;20024;-68
2023/09/02 09:06:22;;;;;;;57.65;24.10;;;;;;;-146.27;100.00;81510.44;5040969;28;20038;-68
2023/09/02 09:08:50;;;;;;;56.38;23.95;;;;;;;-146.27;100.00;81516.47;5030627;28;20561;-67
2023/09/02 09:11:15;;;;;;;62.25;24.77;;;;;;;-146.27;100.00;81476.31;5035822;28;20028;-69
2023/09/02 09:13:45;;;;;;;73.30;26.98;;;;;;;-146.27;100.00;81476.31;5031392;28;20033;-71
2023/09/02 09:16:15;;;;;;;72.53;26.02;;;;;;;-146.27;100.00;81371.88;5039312;28;20504;-71
2023/09/02 09:18:41;;;;;;;61.13;25.17;;;;;;;-146.27;100.00;81349.78;5045771;28;20104;-72
2023/09/02 09:21:07;;;;;;;57.17;24.58;;;;;;;-146.27;100.00;81315.66;5041165;28;20112;-71
2023/09/02 09:23:36;;;;;;;60.05;24.45;;;;;;;-146.27;100.00;81211.22;5035831;28;20071;-72
2023/09/02 09:26:06;;;;;;;53.45;22.00;;;;;;;-146.27;99.69;81189.13;5043779;28;20047;-71
2023/09/02 09:28:54;;;;;;;46.08;21.50;;;;;;;-146.27;97.62;81163.03;5046196;28;20075;-71
2023/09/02 09:31:20;;;;;;;42.10;20.85;;;;;;;-146.27;95.91;81066.63;5034120;28;20017;-72
2023/09/02 09:33:58;;;;;;;44.25;20.10;;;;;;;-146.27;96.91;81074.66;5034474;28;20029;-72
2023/09/02 09:36:25;;;;;;;43.72;20.88;;;;;;;-146.27;96.01;81092.72;5042764;28;20029;-72
2023/09/02 09:38:58;;;;;;;37.30;18.27;;;;;;;-146.27;95.34;81038.50;5048886;28;20029;-71
2023/09/02 09:41:25;;;;;;;38.45;19.25;;;;;;;-146.27;94.08;81018.44;5048533;28;20048;-73
2023/09/02 09:44:10;;;;;;;35.55;18.25;;;;;;;-146.27;93.72;81004.38;5045810;28;20043;-70
2023/09/02 09:46:44;;;;;;;37.92;19.40;;;;;;;-146.27;94.70;80946.13;5032817;28;20077;-72
2023/09/02 09:49:32;;;;;;;33.45;18.73;;;;;;;-146.27;94.88;80924.06;5042230;28;20029;-71
2023/09/02 09:52:00;;;;;;;40.28;19.00;;;;;;;-146.27;94.63;80873.84;5039941;28;20031;-71
2023/09/02 09:54:37;;;;;;;39.67;20.60;;;;;;;-146.27;94.85;80765.41;5031317;28;20053;-71
2023/09/02 09:57:03;;;;;;;38.53;19.70;;;;;;;-146.27;94.64;80731.28;5034091;28;20029;-72
2023/09/02 09:59:28;;;;;;;39.10;20.95;;;;;;;-146.27;91.49;80789.50;5030290;28;20056;-73
2023/09/02 10:01:54;;;;;;;38.33;19.30;;;;;;;-146.27;90.87;80819.63;5036287;28;20052;-72
2023/09/02 10:04:20;;;;;;;37.15;19.90;;;;;;;-146.27;91.13;80922.03;5050115;28;20024;-72
2023/09/02 10:06:46;;;;;;;36.50;18.20;;;;;;;-146.27;91.24;80930.06;5040827;28;20067;-72
2023/09/02 10:09:11;;;;;;;36.90;18.58;;;;;;;-146.27;89.89;80962.22;5048644;28;20484;-72
2023/09/02 10:11:37;;;;;;;35.80;19.05;;;;;;;-146.27;90.18;80994.34;5037758;28;20433;-72
2023/09/02 10:14:03;;;;;;;32.03;16.83;;;;;;;-146.27;90.61;81014.41;5029856;28;20051;-72
2023/09/02 10:16:30;;;;;;;36.70;18.00;;;;;;;-146.27;90.64;81050.56;5037978;28;20393;-71
2023/09/02 10:18:57;;;;;;;38.25;19.35;;;;;;;-146.27;91.15;81020.44;5045334;28;20078;-71
2023/09/02 10:21:26;;;;;;;41.05;19.23;;;;;;;-146.27;90.61;81038.50;5044735;28;20045;-67
2023/09/02 10:23:55;;;;;;;39.95;19.65;;;;;;;-146.27;90.05;81000.34;5041434;28;20505;-68
2023/09/02 10:26:43;;;;;;;46.55;19.65;;;;;;;-146.27;92.13;81040.53;5042488;28;20017;-68
2023/09/02 10:29:12;;;;;;;39.20;18.20;;;;;;;-146.27;91.96;81126.88;5030121;28;20021;-68
2023/09/02 10:31:45;;;;;;;29.48;16.05;;;;;;;-146.27;91.64;81054.56;5041563;28;20024;-68
2023/09/02 10:34:16;;;;;;;34.80;17.90;;;;;;;-146.27;91.83;80964.22;5048609;28;20084;-67
2023/09/02 10:36:47;;;;;;;36.33;18.60;;;;;;;-146.27;91.53;80871.84;5037788;28;20468;-68
2023/09/02 10:39:45;;;;;;;36.83;18.38;;;;;;;-146.27;91.30;80807.59;5036688;28;20469;-69
2023/09/02 10:42:13;;;;;;;32.00;16.95;;;;;;;-146.27;90.11;80761.41;5042033;28;20035;-68
2023/09/02 10:44:39;;;;;;;36.45;19.15;;;;;;;-146.27;89.18;80765.41;5039709;28;20029;-69
2023/09/02 10:47:05;;;;;;;34.35;18.52;;;;;;;-146.27;87.88;80833.69;5054757;28;20032;-70
2023/09/02 10:49:32;;;;;;;38.00;19.23;;;;;;;-146.27;89.76;80857.78;5032139;28;20033;-70
2023/09/02 10:51:58;;;;;;;32.53;18.88;;;;;;;-146.27;88.95;80783.50;5044418;28;20032;-68
2023/09/02 10:54:23;;;;;;;33.20;18.35;;;;;;;-146.27;89.02;80747.34;5048262;28;20377;-68